Dutch Harbor, AK

5:08 AM AKDT on October 31, 2014 (GMT -0800)
Dutch Harbor | Change Station
CLOSE
Current Station
Airport
Location: Dutch Harbor,
Elevation: 13 ft
Nearby Weather Stations

Elev 13 ft 53.90 °N, 166.54 °W | Updated 12 minutes ago

Light Rain
Light Rain
47 °F
Feels Like 47 °F
N
29
Wind Variable Wind from WSW
Gusts 45 mph

Today
High -- | Low -- °F
--% Chance of Precip.
Yesterday
High -- | Low -- °F
Precip. -- in
10:05 AM 7:33 PM
First Quarter, 55% visible
Pressure 29.06 in
Visibility 10.0 miles
Clouds Overcast 3500 ft
Dew Point 35 °F
Humidity 63%
Rainfall 0.08 in
Snow Depth Not available.
UV 0 out of 12
Pollen Not available.
Air Quality Not available.
Flu Activity Not available.
METAR PADU 311256Z AUTO 24025G39KT 190V270 10SM -RA OVC035 08/02 A2904 RMK AO2 PK WND 26040/1228 SLP839 P0000 T00830017

More Conditions Fewer Conditions

Pressure 29.06 in
Visibility 10.0 miles
Clouds Overcast 3500 ft
Dew Point 35 °F
Humidity 63%
Rainfall 0.08 in
Snow Depth Not available.
UV 0 out of 12
Pollen Not available.
Air Quality Not available.
Flu Activity Not available.
METAR PADU 311256Z AUTO 24025G39KT 190V270 10SM -RA OVC035 08/02 A2904 RMK AO2 PK WND 26040/1228 SLP839 P0000 T00830017

More Conditions Fewer Conditions

10-Day Weather Forecast

Almanac

Astronomy

Oct. 31, 2014 Rise Set
Actual Time
Civil Twilight
Nautical Twilight
Astronomical Twilight
Moon
Length of Visible Light
Length of Day
Tomorrow will be .
, % of the Moon is Illuminated

Today's Extremes

State Highs State Lows

Community

WunderPhotos

Upload Photos

1,766,601 photos uploaded!

WunderBlogs® & News

Nearby

Air Quality

  Air Quality AQ Index Pollutant
Not available.

Snow Depth

Station Depth Elevation

Earthquake Activity

City Distance Mag. Time & Date
Minimum magnitude displayed is 2.5.

Coastal Water Temperatures

Place Temperature

Nearby Weather Stations